Time;durP1;ratioP1;P1;durP2;ratioP2;P2;SDS_P1;SDS_P2;PMS_P1;PMS_P2;Temp;Humidity;BMP_temperature;BMP_pressure;BME280_temperature;BME280_humidity;BME280_pressure;Samples;Min_cycle;Max_cycle;Signal;HPM_P1;HPM_P2
2022/10/08 00:01:11;;;;;;;19.92;9.02;;;;;;;17.50;57.40;98602.41;5299376;27;20048;-78
2022/10/08 00:03:42;;;;;;;21.25;11.25;;;;;;;18.03;56.56;98600.81;5279943;27;20057;-78
2022/10/08 00:06:24;;;;;;;21.60;11.23;;;;;;;17.52;58.06;98610.12;5299330;27;20061;-78
2022/10/08 00:08:53;;;;;;;21.83;10.85;;;;;;;18.49;55.24;98595.19;5299702;27;20062;-78
2022/10/08 00:11:28;;;;;;;21.67;10.57;;;;;;;17.51;58.22;98595.41;5299576;27;20053;-78
2022/10/08 00:13:56;;;;;;;17.80;10.07;;;;;;;17.83;58.51;98586.44;5280069;27;20059;-78
2022/10/08 00:16:25;;;;;;;18.27;9.20;;;;;;;17.41;59.47;98589.94;5299106;27;20435;-78
2022/10/08 00:18:55;;;;;;;17.23;9.77;;;;;;;16.99;60.49;98589.00;5299598;27;20057;-78
2022/10/08 00:21:33;;;;;;;19.00;9.40;;;;;;;17.45;59.26;98585.38;5280021;27;20843;-78
2022/10/08 00:24:02;;;;;;;17.23;9.20;;;;;;;16.56;61.86;98582.87;5299026;27;20343;-78
2022/10/08 00:26:31;;;;;;;16.25;8.05;;;;;;;16.75;61.08;98582.66;5299494;27;20057;-78
2022/10/08 00:29:00;;;;;;;16.62;9.75;;;;;;;16.55;60.86;98586.41;5299041;27;20419;-78
2022/10/08 00:31:32;;;;;;;17.40;9.73;;;;;;;16.60;60.18;98570.53;5299024;27;20109;-78
2022/10/08 00:34:03;;;;;;;20.50;10.13;;;;;;;16.51;59.82;98571.88;5299329;27;20041;-79
2022/10/08 00:36:31;;;;;;;17.15;8.98;;;;;;;17.21;58.90;98570.28;5299446;27;20068;-79
2022/10/08 00:39:06;;;;;;;17.30;9.50;;;;;;;17.62;57.17;98566.88;5279516;27;20106;-78
2022/10/08 00:41:37;;;;;;;17.90;9.25;;;;;;;18.44;54.19;98566.78;5299267;27;20045;-78
2022/10/08 00:44:41;;;;;;;16.70;8.70;;;;;;;17.19;57.79;98566.09;5298836;27;20056;-78
2022/10/08 00:47:19;;;;;;;14.93;8.20;;;;;;;17.31;57.90;98563.56;5299310;27;20072;-78
2022/10/08 00:49:48;;;;;;;15.57;8.27;;;;;;;17.84;55.20;98555.94;5280039;27;20065;-78
2022/10/08 00:52:16;;;;;;;14.10;8.38;;;;;;;18.21;53.63;98547.41;5298963;27;20429;-78
2022/10/08 00:54:44;;;;;;;18.17;9.25;;;;;;;18.17;53.18;98545.06;5299087;27;20045;-78
2022/10/08 00:57:11;;;;;;;16.40;8.98;;;;;;;17.86;54.63;98541.88;5279911;27;20411;-78
2022/10/08 00:59:38;;;;;;;16.48;9.27;;;;;;;17.56;56.13;98544.63;5298771;27;20057;-78
2022/10/08 01:02:07;;;;;;;18.10;8.45;;;;;;;16.92;57.89;98546.00;5299231;27;20045;-78
2022/10/08 01:04:43;;;;;;;15.73;8.18;;;;;;;16.31;59.86;98543.56;5298972;27;20050;-78
2022/10/08 01:07:22;;;;;;;15.30;7.62;;;;;;;16.43;59.35;98541.06;5298820;27;20388;-78
2022/10/08 01:10:14;;;;;;;17.30;8.57;;;;;;;16.55;58.75;98542.12;5299214;27;20075;-78
2022/10/08 01:12:58;;;;;;;17.10;8.20;;;;;;;16.60;58.12;98536.66;5279513;27;20063;-78
2022/10/08 01:15:34;;;;;;;16.60;9.02;;;;;;;16.22;58.49;98534.50;5298923;27;20053;-78
2022/10/08 01:18:16;;;;;;;20.62;8.82;;;;;;;16.41;57.86;98529.06;5279771;27;20076;-78
2022/10/08 01:20:53;;;;;;;16.95;8.75;;;;;;;16.62;57.22;98525.19;5298641;27;20422;-78
2022/10/08 01:23:25;;;;;;;;;;;;;;;16.81;56.75;98521.53;5299500;27;20055;-78
2022/10/08 01:26:15;;;;;;;16.65;8.45;;;;;;;16.85;56.58;98518.62;5280126;27;19952;-79
2022/10/08 01:28:56;;;;;;;15.63;8.90;;;;;;;17.29;55.55;98515.88;5280355;27;20066;-78
2022/10/08 01:31:40;;;;;;;20.77;9.57;;;;;;;16.58;56.89;98510.66;5280780;27;20065;-79
2022/10/08 01:34:22;;;;;;;19.80;10.20;;;;;;;16.50;56.97;98507.69;5280207;27;20094;-78
2022/10/08 01:36:50;;;;;;;19.52;10.45;;;;;;;16.43;57.63;98508.97;5280692;27;20049;-78
2022/10/08 01:39:19;;;;;;;17.40;10.23;;;;;;;15.87;61.06;98502.72;5280652;27;20083;-78
2022/10/08 01:41:52;;;;;;;18.75;9.63;;;;;;;15.37;62.70;98497.69;5280271;27;20072;-78
2022/10/08 01:44:25;;;;;;;17.35;8.73;;;;;;;16.28;58.74;98502.09;5280611;27;20064;-78
2022/10/08 01:46:55;;;;;;;15.40;8.50;;;;;;;16.44;58.13;98495.88;5280537;27;20064;-78
2022/10/08 01:49:25;;;;;;;18.25;8.98;;;;;;;16.37;57.95;98497.16;5280677;27;20408;-78
2022/10/08 01:51:56;;;;;;;15.52;7.55;;;;;;;16.64;56.57;98499.87;5300016;27;20057;-78
2022/10/08 01:54:24;;;;;;;15.73;7.35;;;;;;;16.81;55.71;98498.06;5280245;27;20057;-78
2022/10/08 01:56:52;;;;;;;17.58;6.93;;;;;;;17.30;52.69;98495.88;5300075;27;20041;-78
2022/10/08 01:59:25;;;;;;;15.20;7.22;;;;;;;16.89;53.15;98498.44;5280639;27;20084;-78
2022/10/08 02:01:58;;;;;;;17.60;8.35;;;;;;;16.41;54.61;98497.81;5280222;27;20061;-78
2022/10/08 02:04:35;;;;;;;15.43;8.50;;;;;;;16.26;55.15;98496.09;5299814;27;20072;-78
2022/10/08 02:07:21;;;;;;;16.42;8.93;;;;;;;16.18;55.37;98489.59;5281712;27;20383;-78
2022/10/08 02:09:52;;;;;;;15.73;8.63;;;;;;;16.66;54.42;98494.59;5299693;27;20128;-78
2022/10/08 02:12:21;;;;;;;17.25;10.13;;;;;;;16.90;53.88;98489.69;5300037;27;20057;-78
2022/10/08 02:14:53;;;;;;;17.55;10.15;;;;;;;17.12;53.42;98491.78;5299690;27;20053;-78
2022/10/08 02:17:42;;;;;;;19.37;9.98;;;;;;;16.81;54.68;98487.66;5280322;27;20489;-78
2022/10/08 02:20:32;;;;;;;20.33;9.38;;;;;;;16.54;55.74;98482.31;5299944;27;20069;-78
2022/10/08 02:23:36;;;;;;;16.60;9.63;;;;;;;16.85;54.59;98484.75;5299726;27;20071;-78
2022/10/08 02:26:05;;;;;;;15.32;9.10;;;;;;;16.29;56.13;98488.12;5280185;27;20395;-78
2022/10/08 02:28:49;;;;;;;17.87;9.75;;;;;;;16.54;55.67;98485.75;5299739;27;20045;-78
2022/10/08 02:31:34;;;;;;;15.60;8.30;;;;;;;16.30;55.80;98485.44;5280310;27;20070;-78
2022/10/08 02:34:29;;;;;;;14.35;7.95;;;;;;;16.31;55.63;98476.69;5299881;27;20057;-78
2022/10/08 02:37:20;;;;;;;15.10;8.38;;;;;;;16.53;54.76;98481.47;5279805;27;20157;-78
2022/10/08 02:39:58;;;;;;;15.18;8.55;;;;;;;16.77;52.76;98477.41;5280672;27;20049;-78
2022/10/08 02:42:26;;;;;;;14.00;8.70;;;;;;;16.62;53.11;98472.25;5300000;27;20058;-78
2022/10/08 02:45:18;;;;;;;49.65;10.25;;;;;;;16.30;53.83;98472.41;5279872;27;20122;-78
2022/10/08 02:47:48;;;;;;;16.83;9.05;;;;;;;16.40;53.59;98486.56;5279940;27;20054;-78
2022/10/08 02:50:18;;;;;;;19.23;9.60;;;;;;;16.00;55.04;98484.63;5280432;27;20059;-78
2022/10/08 02:52:46;;;;;;;19.40;9.13;;;;;;;15.90;55.36;98487.75;5280545;27;20075;-78
2022/10/08 02:55:39;;;;;;;26.85;10.25;;;;;;;15.95;55.30;98484.03;5280251;27;20053;-78
2022/10/08 02:58:08;;;;;;;31.70;10.18;;;;;;;16.51;53.57;98483.31;5280012;27;20498;-78
2022/10/08 03:00:40;;;;;;;19.67;10.25;;;;;;;16.09;54.36;98489.31;5299717;27;20053;-78
2022/10/08 03:03:15;;;;;;;21.83;10.15;;;;;;;16.35;54.17;98485.16;5299951;27;20072;-78
2022/10/08 03:05:43;;;;;;;52.17;12.07;;;;;;;16.08;55.51;98485.03;5279703;27;20062;-78
2022/10/08 03:08:11;;;;;;;24.15;10.80;;;;;;;15.97;55.93;98483.03;5280288;27;20391;-78
2022/10/08 03:10:39;;;;;;;23.45;11.02;;;;;;;15.99;56.07;98475.97;5280431;27;20049;-78
2022/10/08 03:13:06;;;;;;;20.17;10.27;;;;;;;16.08;56.19;98479.81;5280127;27;20073;-79
2022/10/08 03:15:34;;;;;;;44.00;12.32;;;;;;;16.10;56.42;98480.56;5280088;27;20065;-79
2022/10/08 03:18:05;;;;;;;40.95;10.32;;;;;;;16.02;56.97;98475.78;5280476;27;20050;-78
2022/10/08 03:20:32;;;;;;;47.47;10.10;;;;;;;17.04;53.62;98476.66;5279965;27;20052;-78
2022/10/08 03:23:00;;;;;;;56.30;10.52;;;;;;;16.20;55.50;98476.50;5299746;27;20069;-78
2022/10/08 03:25:27;;;;;;;25.77;9.23;;;;;;;15.89;56.56;98473.06;5279736;27;20064;-78
2022/10/08 03:27:54;;;;;;;88.37;12.00;;;;;;;16.06;56.27;98479.06;5280180;27;20060;-78
2022/10/08 03:30:21;;;;;;;119.85;13.48;;;;;;;16.23;56.11;98476.31;5299880;27;20436;-78
2022/10/08 03:32:48;;;;;;;81.12;10.40;;;;;;;16.77;55.00;98481.78;5299341;27;20058;-78
2022/10/08 03:35:15;;;;;;;64.43;10.38;;;;;;;16.68;55.92;98479.72;5299489;27;20072;-78
2022/10/08 03:37:42;;;;;;;133.60;12.57;;;;;;;16.78;55.56;98470.41;5299854;27;20146;-78
2022/10/08 03:40:09;;;;;;;69.50;12.20;;;;;;;16.98;55.38;98470.03;5299270;27;20053;-78
2022/10/08 03:42:36;;;;;;;89.40;12.45;;;;;;;17.23;55.23;98471.13;5299600;27;20094;-78
2022/10/08 03:45:04;;;;;;;78.03;11.20;;;;;;;16.78;57.14;98486.88;5279975;27;20066;-78
2022/10/08 03:47:31;;;;;;;61.53;11.38;;;;;;;16.58;57.98;98476.81;5279768;27;20052;-78
2022/10/08 03:49:58;;;;;;;177.25;15.25;;;;;;;16.54;58.35;98479.69;5299609;27;20057;-78
2022/10/08 03:52:25;;;;;;;156.60;15.27;;;;;;;17.02;57.66;98474.13;5280259;27;20080;-78
2022/10/08 03:54:52;;;;;;;79.75;11.43;;;;;;;17.56;55.45;98482.03;5298946;27;20061;-78
2022/10/08 03:57:19;;;;;;;107.37;12.85;;;;;;;16.71;57.96;98476.94;5299690;27;20049;-78
2022/10/08 03:59:46;;;;;;;191.77;13.82;;;;;;;16.51;58.88;98485.09;5299571;27;20055;-78
2022/10/08 04:02:13;;;;;;;81.37;11.55;;;;;;;16.53;59.50;98478.03;5299141;27;20058;-78
2022/10/08 04:04:40;;;;;;;85.68;12.37;;;;;;;16.65;58.86;98477.28;5299356;27;20061;-78
2022/10/08 04:07:07;;;;;;;100.62;12.05;;;;;;;17.21;57.89;98480.78;5299672;27;20045;-78
2022/10/08 04:09:33;;;;;;;117.13;14.32;;;;;;;17.20;57.89;98464.31;5299146;27;20049;-78
2022/10/08 04:12:00;;;;;;;112.78;14.02;;;;;;;17.39;57.86;98474.41;5299588;27;20062;-78
2022/10/08 04:14:27;;;;;;;152.52;14.87;;;;;;;17.98;56.63;98472.38;5299336;27;20057;-78
2022/10/08 04:16:54;;;;;;;207.87;18.20;;;;;;;17.93;57.18;98469.22;5299550;27;20057;-78
2022/10/08 04:19:21;;;;;;;169.02;19.12;;;;;;;16.98;60.85;98471.81;5299422;27;20064;-78
2022/10/08 04:21:48;;;;;;;123.00;16.37;;;;;;;15.77;68.25;98473.78;5299022;27;20057;-78
2022/10/08 04:24:15;;;;;;;65.75;14.50;;;;;;;16.30;65.73;98463.78;5299215;27;20057;-78
2022/10/08 04:26:41;;;;;;;94.40;16.12;;;;;;;16.22;66.09;98469.41;5299379;27;20134;-78
2022/10/08 04:29:11;;;;;;;123.85;14.60;;;;;;;15.70;68.40;98469.00;5298794;27;20052;-78
2022/10/08 04:31:39;;;;;;;138.75;13.68;;;;;;;15.75;66.20;98467.81;5299376;27;20470;-78
2022/10/08 04:34:06;;;;;;;47.45;10.52;;;;;;;15.84;65.72;98469.91;5299262;27;20324;-78
2022/10/08 04:36:33;;;;;;;96.82;13.40;;;;;;;16.31;63.75;98471.50;5299081;27;20356;-78
2022/10/08 04:38:59;;;;;;;78.95;13.57;;;;;;;16.49;62.89;98473.00;5299339;27;20045;-78
2022/10/08 04:41:26;;;;;;;64.03;13.02;;;;;;;16.71;61.66;98476.94;5299227;27;20340;-78
2022/10/08 04:43:59;;;;;;;50.03;11.85;;;;;;;16.44;62.31;98469.81;5298930;27;20437;-78
2022/10/08 04:46:26;;;;;;;66.22;13.05;;;;;;;16.87;60.90;98480.28;5299323;27;20448;-78
2022/10/08 04:48:54;;;;;;;45.72;12.40;;;;;;;15.90;64.26;98474.75;5299254;27;20055;-78
2022/10/08 04:51:23;;;;;;;33.50;11.63;;;;;;;15.45;66.59;98467.75;5298910;27;20430;-78
2022/10/08 04:53:53;;;;;;;29.80;11.57;;;;;;;15.22;67.70;98476.00;5299252;27;20461;-78
2022/10/08 04:56:25;;;;;;;62.92;12.90;;;;;;;14.22;72.36;98469.97;5299037;27;20064;-78
2022/10/08 04:58:56;;;;;;;96.85;14.25;;;;;;;14.56;72.10;98479.47;5279624;27;20087;-78
2022/10/08 05:01:24;;;;;;;76.03;14.13;;;;;;;15.02;70.70;98475.31;5300009;27;20073;-78
2022/10/08 05:03:53;;;;;;;69.50;12.93;;;;;;;15.18;70.31;98469.25;5299843;27;20091;-78
2022/10/08 05:06:22;;;;;;;68.85;13.18;;;;;;;15.33;69.47;98463.22;5300042;27;20049;-78
2022/10/08 05:08:49;;;;;;;103.78;14.85;;;;;;;15.65;69.12;98469.28;5300082;27;20388;-78
2022/10/08 05:11:17;;;;;;;77.28;13.95;;;;;;;14.74;73.84;98469.87;5299771;27;20340;-78
2022/10/08 05:13:54;;;;;;;135.02;15.98;;;;;;;15.19;71.88;98466.56;5300224;27;20490;-78
2022/10/08 05:16:21;;;;;;;74.37;13.40;;;;;;;15.43;70.16;98474.81;5300221;27;20052;-78
2022/10/08 05:18:50;;;;;;;56.60;12.55;;;;;;;16.70;65.44;98481.31;5299855;27;20057;-78
2022/10/08 05:21:23;;;;;;;61.60;11.40;;;;;;;17.18;62.43;98475.78;5300101;27;20068;-78
2022/10/08 05:24:10;;;;;;;69.05;12.45;;;;;;;16.96;63.17;98482.31;5300290;27;20091;-78
2022/10/08 05:26:38;;;;;;;66.75;12.10;;;;;;;16.95;63.24;98483.25;5280252;27;20466;-78
2022/10/08 05:29:24;;;;;;;106.50;15.00;;;;;;;16.86;63.50;98475.16;5299863;27;20332;-78
2022/10/08 05:31:51;;;;;;;124.57;15.43;;;;;;;16.70;63.92;98477.88;5299734;27;20061;-78
2022/10/08 05:34:18;;;;;;;94.70;14.63;;;;;;;16.41;65.12;98475.22;5299930;27;20061;-78
2022/10/08 05:36:45;;;;;;;75.78;13.32;;;;;;;15.68;68.14;98478.66;5300164;27;20053;-78
2022/10/08 05:39:12;;;;;;;54.03;12.90;;;;;;;16.18;66.31;98481.78;5299718;27;20052;-78
2022/10/08 05:41:40;;;;;;;54.47;12.20;;;;;;;15.49;68.99;98479.66;5280551;27;20482;-78
2022/10/08 05:44:08;;;;;;;90.85;15.50;;;;;;;14.46;74.92;98480.88;5299814;27;20425;-78
2022/10/08 05:46:36;;;;;;;35.05;13.10;;;;;;;13.84;78.56;98477.91;5299638;27;20049;-78
2022/10/08 05:49:05;;;;;;;42.00;12.80;;;;;;;14.65;75.16;98481.59;5300204;27;20132;-78
2022/10/08 05:51:32;;;;;;;58.75;12.52;;;;;;;14.69;75.20;98479.69;5300101;27;20110;-78
2022/10/08 05:54:00;;;;;;;101.97;15.80;;;;;;;14.87;74.62;98494.28;5299544;27;20061;-78
2022/10/08 05:56:27;;;;;;;53.05;13.40;;;;;;;15.13;74.49;98497.28;5299983;27;20395;-78
2022/10/08 05:58:54;;;;;;;62.67;14.98;;;;;;;15.19;74.12;98497.75;5299996;27;20079;-78
2022/10/08 06:01:23;;;;;;;96.25;16.00;;;;;;;14.57;76.95;98490.69;5299617;27;20443;-78
2022/10/08 06:03:54;;;;;;;34.70;13.10;;;;;;;14.01;80.04;98490.03;5300053;27;20071;-78
2022/10/08 06:06:22;;;;;;;67.35;13.80;;;;;;;13.21;84.60;98505.97;5280499;27;20415;-78
2022/10/08 06:08:57;;;;;;;46.37;13.55;;;;;;;13.82;81.97;98497.91;5299598;27;20049;-78
2022/10/08 06:11:28;;;;;;;157.32;18.30;;;;;;;13.28;85.10;98506.53;5299834;27;20115;-78
2022/10/08 06:13:57;;;;;;;118.70;16.92;;;;;;;13.19;85.95;98504.38;5299697;27;20064;-78
2022/10/08 06:16:25;;;;;;;61.17;13.88;;;;;;;13.19;85.54;98504.38;5299943;27;20063;-78
2022/10/08 06:18:52;;;;;;;81.30;15.52;;;;;;;13.23;86.53;98513.69;5300015;27;20063;-78
2022/10/08 06:21:21;;;;;;;88.25;14.93;;;;;;;12.86;88.04;98515.28;5299403;27;20058;-78
2022/10/08 06:23:56;;;;;;;77.32;15.18;;;;;;;13.81;85.20;98509.16;5299958;27;20048;-78
2022/10/08 06:26:26;;;;;;;36.75;12.57;;;;;;;14.18;83.61;98512.56;5280536;27;20064;-78
2022/10/08 06:29:00;;;;;;;86.63;15.05;;;;;;;15.36;78.49;98524.63;5281258;27;20051;-78
2022/10/08 06:31:27;;;;;;;93.15;15.32;;;;;;;15.35;78.38;98523.78;5280605;27;20075;-78
2022/10/08 06:33:57;;;;;;;75.50;14.68;;;;;;;14.87;79.92;98528.06;5299905;27;20060;-78
2022/10/08 06:36:26;;;;;;;81.60;13.80;;;;;;;14.82;81.46;98526.66;5299583;27;20059;-78
2022/10/08 06:38:55;;;;;;;87.00;14.85;;;;;;;15.64;77.61;98529.19;5299865;27;20046;-78
2022/10/08 06:41:22;;;;;;;30.98;13.38;;;;;;;13.69;84.84;98524.47;5299752;27;20061;-78
2022/10/08 06:43:49;;;;;;;50.72;13.55;;;;;;;13.65;86.77;98535.91;5299453;27;20057;-78
2022/10/08 06:46:18;;;;;;;110.22;18.45;;;;;;;14.24;84.54;98538.19;5280259;27;20053;-78
2022/10/08 06:48:45;;;;;;;38.10;13.70;;;;;;;14.04;87.01;98543.56;5299860;27;20046;-78
2022/10/08 06:51:14;;;;;;;35.67;14.13;;;;;;;13.63;87.97;98541.19;5299591;27;20072;-78
2022/10/08 06:53:42;;;;;;;47.83;14.70;;;;;;;13.86;89.51;98542.69;5299957;27;20066;-78
2022/10/08 06:56:13;;;;;;;44.72;15.73;;;;;;;12.85;92.88;98544.69;5299160;27;20064;-78
2022/10/08 06:58:42;;;;;;;117.78;18.25;;;;;;;12.89;95.08;98553.19;5280923;27;20399;-78
2022/10/08 07:01:15;;;;;;;67.65;14.95;;;;;;;13.37;92.78;98560.53;5280643;27;20423;-78
2022/10/08 07:03:42;;;;;;;38.55;13.57;;;;;;;13.08;94.41;98551.47;5299462;27;20095;-78
2022/10/08 07:06:10;;;;;;;69.87;16.25;;;;;;;12.10;97.43;98549.62;5299526;27;20048;-78
2022/10/08 07:08:38;;;;;;;112.03;19.55;;;;;;;12.74;96.18;98550.34;5299847;27;20045;-78
2022/10/08 07:11:15;;;;;;;195.73;22.05;;;;;;;12.68;97.63;98553.22;5299333;27;20057;-78
2022/10/08 07:13:43;;;;;;;62.72;16.60;;;;;;;13.22;96.32;98550.88;5299935;27;20061;-78
2022/10/08 07:16:18;;;;;;;77.55;18.42;;;;;;;12.64;98.70;98555.97;5299478;27;20499;-78
2022/10/08 07:18:48;;;;;;;189.43;24.55;;;;;;;13.40;96.05;98549.16;5280166;27;20431;-78
2022/10/08 07:21:16;;;;;;;98.65;18.95;;;;;;;13.93;92.70;98551.84;5299758;27;20072;-78
2022/10/08 07:23:44;;;;;;;81.03;18.52;;;;;;;12.98;98.46;98553.63;5299403;27;20072;-78
2022/10/08 07:26:13;;;;;;;81.95;18.60;;;;;;;13.10;97.66;98554.81;5279665;27;20069;-78
2022/10/08 07:28:46;;;;;;;84.75;17.35;;;;;;;13.67;97.26;98560.03;5299573;27;20044;-78
2022/10/08 07:31:18;;;;;;;91.72;19.83;;;;;;;14.20;92.67;98560.03;5280107;27;20069;-78
2022/10/08 07:33:45;;;;;;;88.68;17.40;;;;;;;14.84;89.05;98559.41;5299914;27;20640;-78
2022/10/08 07:36:14;;;;;;;83.65;18.67;;;;;;;15.16;88.03;98562.09;5299315;27;20057;-78
2022/10/08 07:38:41;;;;;;;95.40;19.00;;;;;;;15.24;86.02;98562.53;5299508;27;20320;-78
2022/10/08 07:41:09;;;;;;;78.80;17.75;;;;;;;15.79;84.79;98564.75;5299671;27;20075;-78
2022/10/08 07:43:40;;;;;;;90.05;17.65;;;;;;;15.56;85.95;98572.03;5299631;27;20053;-78
2022/10/08 07:46:08;;;;;;;72.12;18.95;;;;;;;15.24;88.72;98563.34;5299078;27;20310;-78
2022/10/08 07:48:36;;;;;;;87.53;19.37;;;;;;;15.11;89.02;98564.94;5299793;27;20082;-78
2022/10/08 07:51:11;;;;;;;105.57;20.95;;;;;;;15.83;86.78;98563.62;5299607;27;20099;-78
2022/10/08 07:53:38;;;;;;;61.85;17.98;;;;;;;16.27;84.64;98562.88;5299147;27;20408;-78
2022/10/08 07:56:06;;;;;;;69.55;20.85;;;;;;;15.54;85.43;98560.87;5299380;27;20054;-78
2022/10/08 07:58:34;;;;;;;94.72;21.45;;;;;;;16.36;83.22;98560.56;5299596;27;20110;-78
2022/10/08 08:01:02;;;;;;;46.85;19.77;;;;;;;16.00;84.06;98560.09;5299231;27;20057;-78
2022/10/08 08:03:30;;;;;;;46.37;18.65;;;;;;;15.49;86.17;98562.03;5299424;27;20058;-78
2022/10/08 08:06:02;;;;;;;43.38;19.30;;;;;;;15.34;86.60;98555.91;5299297;27;20067;-78
2022/10/08 08:08:29;;;;;;;69.62;21.75;;;;;;;15.51;86.82;98560.19;5299590;27;20046;-78
2022/10/08 08:10:59;;;;;;;78.70;21.48;;;;;;;16.22;84.92;98559.72;5299672;27;20107;-79
2022/10/08 08:13:27;;;;;;;67.80;19.55;;;;;;;16.46;82.37;98564.31;5299234;27;20061;-79
2022/10/08 08:16:05;;;;;;;52.97;20.60;;;;;;;15.50;86.22;98558.50;5299317;27;20069;-79
2022/10/08 08:18:34;;;;;;;38.20;20.67;;;;;;;15.62;85.63;98553.50;5299609;27;20093;-78
2022/10/08 08:21:03;;;;;;;55.38;22.90;;;;;;;14.97;88.76;98555.25;5299003;27;20057;-78
2022/10/08 08:23:51;;;;;;;55.95;22.50;;;;;;;15.10;90.30;98558.06;5299415;27;20062;-78
2022/10/08 08:26:20;;;;;;;47.53;21.48;;;;;;;16.67;83.49;98557.00;5299181;27;20062;-78
2022/10/08 08:28:54;;;;;;;54.28;22.73;;;;;;;16.02;85.48;98555.63;5298814;27;20059;-78
2022/10/08 08:31:24;;;;;;;48.08;23.45;;;;;;;16.19;85.21;98550.31;5299581;27;20061;-78
2022/10/08 08:33:56;;;;;;;45.50;22.80;;;;;;;15.61;86.90;98548.38;5299551;27;20065;-78
2022/10/08 08:36:26;;;;;;;47.92;23.12;;;;;;;16.28;84.17;98555.00;5299709;27;20049;-78
2022/10/08 08:38:54;;;;;;;44.30;22.83;;;;;;;17.21;81.00;98559.00;5300392;27;20396;-78
2022/10/08 08:41:39;;;;;;;49.80;23.65;;;;;;;17.69;78.27;98554.28;5299952;27;20057;-78
2022/10/08 08:44:16;;;;;;;47.62;23.85;;;;;;;18.73;74.36;98558.81;5300110;27;20058;-78
2022/10/08 08:46:47;;;;;;;50.17;23.60;;;;;;;17.79;77.10;98547.59;5300250;27;20053;-78
2022/10/08 08:49:41;;;;;;;52.70;24.48;;;;;;;19.26;71.03;98554.28;5300111;27;20045;-78
2022/10/08 08:52:09;;;;;;;46.28;24.48;;;;;;;17.90;75.27;98552.94;5280541;27;20058;-78
2022/10/08 08:54:36;;;;;;;48.55;25.40;;;;;;;18.89;72.00;98555.97;5280598;27;20420;-78
2022/10/08 08:57:25;;;;;;;45.65;24.67;;;;;;;19.32;71.69;98552.03;5280523;27;20068;-78
2022/10/08 08:59:54;;;;;;;45.42;24.20;;;;;;;19.15;71.88;98548.94;5300353;27;20045;-78
2022/10/08 09:02:32;;;;;;;41.95;22.98;;;;;;;20.37;66.51;98554.03;5280429;27;20062;-78
2022/10/08 09:05:02;;;;;;;40.75;23.10;;;;;;;20.00;66.28;98547.25;5280662;27;20061;-78
2022/10/08 09:07:38;;;;;;;38.70;22.23;;;;;;;19.41;69.03;98544.50;5280798;27;20418;-78
2022/10/08 09:10:08;;;;;;;42.03;21.65;;;;;;;20.35;65.02;98542.84;5280537;27;20418;-78
2022/10/08 09:12:38;;;;;;;41.20;23.73;;;;;;;19.94;64.97;98541.50;5300358;27;20483;-78
2022/10/08 09:15:25;;;;;;;38.95;23.62;;;;;;;21.11;62.20;98541.44;5280569;27;20053;-78
2022/10/08 09:17:52;;;;;;;40.78;23.65;;;;;;;21.37;60.20;98537.66;5280657;27;20069;-78
2022/10/08 09:20:22;;;;;;;38.35;23.23;;;;;;;22.21;57.74;98535.25;5300266;27;20384;-78
2022/10/08 09:22:50;;;;;;;40.10;23.77;;;;;;;22.40;56.75;98539.81;5280719;27;20472;-78
2022/10/08 09:25:20;;;;;;;38.33;23.40;;;;;;;21.41;60.59;98540.84;5299582;27;20061;-78
2022/10/08 09:27:50;;;;;;;38.28;23.23;;;;;;;22.43;57.99;98536.94;5299930;27;20049;-78
2022/10/08 09:30:23;;;;;;;37.83;23.12;;;;;;;23.38;56.34;98535.75;5280446;27;20395;-78
2022/10/08 09:32:52;;;;;;;37.22;22.70;;;;;;;22.75;56.49;98537.69;5300223;27;20060;-78
2022/10/08 09:35:19;;;;;;;37.53;22.00;;;;;;;22.63;57.61;98538.72;5280315;27;20403;-78
2022/10/08 09:37:47;;;;;;;35.13;19.85;;;;;;;22.02;58.68;98529.84;5299802;27;20109;-78
2022/10/08 09:40:26;;;;;;;34.50;20.67;;;;;;;23.28;55.31;98531.44;5300132;27;20361;-78
2022/10/08 09:43:14;;;;;;;34.53;20.58;;;;;;;22.67;56.97;98523.53;5280547;27;20390;-79
2022/10/08 09:45:46;;;;;;;33.28;20.88;;;;;;;22.44;56.23;98522.84;5279776;27;20058;-79
2022/10/08 09:48:20;;;;;;;42.25;20.58;;;;;;;22.46;56.32;98524.38;5280617;27;20442;-79
2022/10/08 09:51:04;;;;;;;36.22;21.42;;;;;;;23.34;53.73;98529.13;5300214;27;20046;-79
2022/10/08 09:53:38;;;;;;;32.50;20.37;;;;;;;22.70;56.22;98516.22;5299723;27;20054;-78
2022/10/08 09:56:06;;;;;;;33.33;19.75;;;;;;;23.83;53.84;98519.53;5299843;27;20403;-78
2022/10/08 09:58:47;;;;;;;30.42;19.92;;;;;;;23.39;54.30;98526.06;5280485;27;20414;-78
2022/10/08 10:01:15;;;;;;;28.38;18.12;;;;;;;23.02;55.90;98523.19;5280773;27;20049;-78
2022/10/08 10:03:55;;;;;;;27.70;17.85;;;;;;;23.67;52.59;98520.06;5299963;27;20114;-78
2022/10/08 10:06:28;;;;;;;28.45;18.33;;;;;;;22.92;55.47;98517.03;5299540;27;20057;-78
2022/10/08 10:09:15;;;;;;;30.33;18.95;;;;;;;23.75;53.63;98515.94;5299970;27;20153;-78
2022/10/08 10:11:48;;;;;;;24.65;15.18;;;;;;;23.84;52.56;98515.09;5299765;27;20056;-78
2022/10/08 10:14:33;;;;;;;24.58;15.45;;;;;;;24.07;51.56;98513.03;5299509;27;20071;-78
2022/10/08 10:17:24;;;;;;;21.35;13.50;;;;;;;24.39;50.19;98508.31;5299951;27;20138;-78
2022/10/08 10:19:58;;;;;;;24.17;14.63;;;;;;;23.47;50.65;98501.69;5280322;27;20380;-78
2022/10/08 10:22:43;;;;;;;24.00;14.90;;;;;;;24.91;47.68;98503.44;5280731;27;20086;-78
2022/10/08 10:25:10;;;;;;;25.55;14.70;;;;;;;25.71;45.05;98503.75;5280602;27;20064;-78
2022/10/08 10:27:41;;;;;;;22.85;15.27;;;;;;;24.99;47.04;98508.84;5299437;27;20072;-78
2022/10/08 10:30:21;;;;;;;25.25;15.70;;;;;;;25.75;45.28;98499.84;5280509;27;20067;-78
2022/10/08 10:33:03;;;;;;;16.48;11.43;;;;;;;25.47;46.45;98494.56;5300027;27;20395;-79
2022/10/08 10:35:31;;;;;;;17.83;11.52;;;;;;;24.74;47.35;98493.63;5299362;27;20075;-79
2022/10/08 10:38:15;;;;;;;23.20;12.48;;;;;;;24.94;45.22;98497.88;5299935;27;20071;-79
2022/10/08 10:40:44;;;;;;;24.42;15.68;;;;;;;25.78;44.22;98489.81;5280295;27;20050;-79
2022/10/08 10:43:24;;;;;;;21.75;13.75;;;;;;;25.75;45.49;98490.13;5280422;27;20052;-79
2022/10/08 10:46:15;;;;;;;33.33;15.25;;;;;;;24.62;47.84;98485.06;5299674;27;20060;-79
2022/10/08 10:48:42;;;;;;;19.65;12.63;;;;;;;23.91;49.59;98480.12;5280141;27;20455;-79
2022/10/08 10:51:36;;;;;;;22.02;12.23;;;;;;;23.10;51.46;98475.97;5299977;27;20049;-79
2022/10/08 10:54:21;;;;;;;22.40;13.52;;;;;;;24.36;49.31;98476.94;5299838;27;20044;-79
2022/10/08 10:56:53;;;;;;;20.02;13.25;;;;;;;25.67;45.58;98474.13;5299404;27;20061;-79
2022/10/08 10:59:32;;;;;;;21.50;12.23;;;;;;;24.68;46.98;98467.84;5280127;27;20065;-79
2022/10/08 11:02:14;;;;;;;21.02;12.65;;;;;;;24.69;47.98;98470.34;5299496;27;20506;-79
2022/10/08 11:04:59;;;;;;;22.30;13.00;;;;;;;25.65;45.16;98462.91;5299618;27;20061;-79
2022/10/08 11:07:58;;;;;;;23.33;13.67;;;;;;;23.94;49.58;98461.44;5299831;27;20069;-79
2022/10/08 11:10:37;;;;;;;20.60;13.10;;;;;;;23.60;50.65;98465.44;5299612;27;20072;-79
2022/10/08 11:13:34;;;;;;;20.17;12.57;;;;;;;24.49;48.60;98463.47;5299837;27;20050;-79
2022/10/08 11:16:19;;;;;;;21.45;11.20;;;;;;;24.69;47.51;98456.31;5299246;27;20049;-79
2022/10/08 11:18:54;;;;;;;21.02;11.45;;;;;;;24.86;46.56;98459.97;5299804;27;20077;-79
2022/10/08 11:21:52;;;;;;;22.25;12.30;;;;;;;25.12;46.34;98450.44;5280376;27;20076;-79
2022/10/08 11:24:29;;;;;;;;;;;;;;;24.32;49.52;98451.00;5280122;27;20061;-79
2022/10/08 11:27:20;;;;;;;18.67;11.52;;;;;;;24.35;49.32;98448.91;5299939;27;19970;-79
2022/10/08 11:30:11;;;;;;;17.85;11.85;;;;;;;25.38;47.48;98438.19;5299551;27;20057;-79
2022/10/08 11:32:39;;;;;;;17.77;11.65;;;;;;;25.31;46.30;98436.31;5280895;27;20095;-79
2022/10/08 11:35:27;;;;;;;21.75;11.27;;;;;;;23.65;49.97;98432.44;5299527;27;20062;-79
2022/10/08 11:37:57;;;;;;;20.75;11.80;;;;;;;23.69;50.81;98433.00;5279930;27;20101;-79
2022/10/08 11:40:35;;;;;;;16.35;10.98;;;;;;;23.79;50.63;98433.81;5299772;27;20061;-79
2022/10/08 11:43:26;;;;;;;18.33;11.27;;;;;;;24.45;48.35;98433.88;5299663;27;20068;-79
2022/10/08 11:46:30;;;;;;;18.23;10.43;;;;;;;23.76;50.90;98428.00;5279734;27;20404;-79